• Join FlightAware (Why Join?)
  • Login
  • US Flag 
11:22AM EDT


 

Airport Tracker/Info


-or-


 

Live Flight TrackerFlight Track Log ✈ EJA941 ✈ 22-Aug-2013 ✈ KLIT - KBWI

Flight Track Log - Related Links

Times and Time Zones

All times are in EDT time to prevent confusion due to time zone crossing. See the EJA941 flight status page for this flight to view local times or setup timezone preferences in your user account.

Time Position Orientation Groundspeed Altitude Reporting Facility
EDT Latitude Longitude Course Direction KTS MPH feet Rate Location/Type
04:16PM 34.7178 -92.2444 161° South 165 190 600  Level Memphis Center
04:16PM 34.6867 -92.2311 161° South 190 219 2,300 2,940 Climbing Memphis Center
04:17PM 34.6264 -92.2072 162° South 249 287 5,400 11,880 Climbing Memphis Center
04:19PM 34.5828 -92.0625 110° East 232 267 39,000 2,940 Climbing Memphis Center
04:20PM 34.6300 -91.9497 63° Northeast 266 306 14,600 -12,000 Descending Memphis Center
04:21PM 34.6794 -91.8344 62° Northeast 329 379 15,000 480 Climbing Memphis Center
04:22PM 34.7244 -91.7242 64° Northeast 380 437 15,600 1,260 Climbing Memphis Center
04:23PM 34.7447 -91.5906 79° East 398 458 17,600 1,680 Climbing Memphis Center
04:24PM 34.7667 -91.4619 78° East 393 452 19,000 1,380 Climbing Memphis Center
04:26PM 34.8125 -91.2019 78° East 394 453 21,800 1,320 Climbing Memphis Center
04:27PM 34.8342 -91.0706 79° East 394 453 23,000 600 Climbing Memphis Center
04:28PM 34.8581 -90.9267 79° East 413 475 23,100 660 Climbing Memphis Center
04:29PM 34.8856 -90.7697 78° East 422 486 24,400 960 Climbing Memphis Center
04:30PM 34.9111 -90.6231 78° East 433 498 25,100 960 Climbing Memphis Center
04:31PM 34.9364 -90.4736 78° East 438 504 26,400 1,260 Climbing Memphis Center
04:32PM 34.9614 -90.3267 78° East 438 504 27,700 1,260 Climbing Memphis Center
04:33PM 34.9864 -90.1797 78° East 438 504 29,000 1,260 Climbing Memphis Center
04:34PM 35.0111 -90.0300 79° East 443 510 30,300 1,260 Climbing Memphis Center
04:35PM 35.0564 -89.8828 69° East 457 526 31,600 1,080 Climbing Memphis Center
04:36PM 35.1019 -89.7531 67° East 467 537 32,500 1,200 Climbing Memphis Center
04:37PM 35.1511 -89.6078 67° East 472 543 34,000 1,500 Climbing Memphis Center
04:38PM 35.2044 -89.4625 66° East 466 536 35,500 1,500 Climbing Memphis Center
04:39PM 35.2572 -89.3069 67° East 461 531 37,000 1,500 Climbing Memphis Center
04:40PM 35.3081 -89.1611 67° East 456 525 38,500 960 Climbing Memphis Center
04:41PM 35.3567 -89.0178 67° East 450 518 39,000 240 Climbing Memphis Center
04:42PM 35.4094 -88.8694 66° East 458 527 39,000  Level Memphis Center
04:43PM 35.4475 -88.7464 69° East 452 520 39,000  Level Memphis Center
04:44PM 35.4975 -88.6050 66° East 445 512 39,000  Level Memphis Center
04:45PM 35.5456 -88.4689 67° East 440 506 39,000  Level Memphis Center
04:46PM 35.5956 -88.3222 67° East 440 506 39,000  Level Memphis Center
04:47PM 35.6431 -88.1831 67° East 446 513 39,000  Level Memphis Center
04:48PM 35.6969 -88.0358 66° East 433 498 39,000  Level Memphis Center
04:49PM 35.7419 -87.8914 69° East 438 504 39,000  Level Memphis Center
04:50PM 35.7892 -87.7492 68° East 444 511 39,000  Level Memphis Center
04:51PM 35.8381 -87.6017 68° East 454 522 39,000  Level Memphis Center
04:52PM 35.8850 -87.4592 68° East 454 522 39,000  Level Memphis Center
04:53PM 35.9336 -87.3114 68° East 454 522 39,000  Level Memphis Center
04:54PM 35.9797 -87.1636 69° East 459 528 39,000  Level Memphis Center
04:55PM 36.0281 -87.0128 68° East 459 528 39,000  Level Memphis Center
04:56PM 36.0758 -86.8619 69° East 459 528 39,000  Level Memphis Center
04:57PM 36.1258 -86.7081 68° East 464 534 39,000  Level Memphis Center
04:58PM 36.1753 -86.5542 68° East 472 543 39,000  Level Memphis Center
04:59PM 36.2247 -86.4053 68° East 472 543 39,000  Level Memphis Center
05:01PM 36.2994 -86.1817 67° East 474 545 39,000  Level Indianapolis Center
05:02PM 36.3478 -86.0300 68° East 470 541 39,000  Level Indianapolis Center
05:03PM 36.4056 -85.8506 68° East 477 549 39,000  Level Indianapolis Center
05:04PM 36.4506 -85.7075 69° East 477 549 39,000  Level Indianapolis Center
05:05PM 36.4997 -85.5536 68° East 479 551 39,000  Level Indianapolis Center
05:06PM 36.5464 -85.4000 69° East 474 545 39,000  Level Indianapolis Center
05:07PM 36.6033 -85.2144 69° East 476 548 39,000  Level Indianapolis Center
05:08PM 36.6511 -85.0594 69° East 478 550 39,000  Level Indianapolis Center
05:09PM 36.7003 -84.9042 68° East 480 552 39,000  Level Indianapolis Center
05:10PM 36.7464 -84.7458 70° East 483 556 39,000  Level Indianapolis Center
05:11PM 36.7944 -84.5914 69° East 478 550 39,000  Level Indianapolis Center
05:12PM 36.8433 -84.4311 69° East 475 547 39,000  Level Indianapolis Center
05:13PM 36.8897 -84.2753 70° East 476 548 39,000  Level Indianapolis Center
05:14PM 36.9442 -84.0922 70° East 476 548 39,000  Level Indianapolis Center
05:15PM 36.9897 -83.9356 70° East 479 551 39,000  Level Indianapolis Center
05:16PM 37.0367 -83.7794 69° East 476 548 39,000  Level Indianapolis Center
05:18PM 37.0828 -83.6228 70° East 478 550 39,000  Level Indianapolis Center
05:19PM 37.1294 -83.4647 70° East 481 554 39,000  Level Indianapolis Center
05:20PM 37.1756 -83.3075 70° East 478 550 39,000  Level Indianapolis Center
05:21PM 37.2200 -83.1519 70° East 473 544 39,000  Level Indianapolis Center
05:22PM 37.2725 -82.9714 70° East 468 539 39,000  Level Indianapolis Center
05:23PM 37.3169 -82.8139 70° East 474 545 39,000  Level Indianapolis Center
05:24PM 37.3622 -82.6556 70° East 479 551 39,000  Level Indianapolis Center
05:25PM 37.4058 -82.4947 71° East 482 555 39,000  Level Indianapolis Center
05:26PM 37.4506 -82.3381 70° East 477 549 39,000  Level Indianapolis Center
05:27PM 37.4933 -82.1836 71° East 468 539 39,000  Level Indianapolis Center
05:28PM 37.5419 -82.0056 71° East 461 531 39,000  Level Indianapolis Center
05:29PM 37.5517 -81.8414 86° East 475 547 39,000  Level Indianapolis Center
05:30PM 37.5542 -81.6717 89° East 482 555 39,000  Level Indianapolis Center
05:31PM 37.5567 -81.4997 89° East 490 564 39,000  Level Indianapolis Center
05:32PM 37.5572 -81.3353 90° East 491 565 39,000  Level Indianapolis Center
05:33PM 37.5575 -81.1331 90° East 495 570 39,000  Level Indianapolis Center
05:34PM 37.5578 -80.9669 90° East 490 564 39,000  Level Indianapolis Center
05:35PM 37.5592 -80.8019 89° East 487 560 39,000  Level Indianapolis Center
05:36PM 37.5589 -80.6075 90° East 477 549 39,000  Level Indianapolis Center
05:37PM 37.5564 -80.4778 91° East 476 548 39,000  Level Washington Center
05:38PM 37.5567 -80.3128 90° East 476 548 39,000  Level Washington Center
05:39PM 37.5561 -80.1658 90° East 476 548 39,000  Level Washington Center
05:40PM 37.5542 -80.0008 91° East 476 548 39,000  Level Washington Center
05:41PM 37.5544 -79.8147 90° East 476 548 39,000 -360 Level Washington Center
05:42PM 37.5519 -79.6522 91° East 476 548 38,300 -840 Descending Washington Center
05:43PM 37.5508 -79.4897 90° East 465 535 37,400 -1,320 Descending Washington Center
05:44PM 37.5500 -79.3247 90° East 465 535 35,700 -1,680 Descending Washington Center
05:45PM 37.5500 -79.1911 90° East 465 535 34,100 -900 Descending Washington Center
05:46PM 37.5436 -78.9786 92° East 482 555 34,000 -60 Descending Washington Center
05:47PM 37.5400 -78.8081 91° East 488 562 34,000 -300 Level Washington Center
05:48PM 37.5383 -78.6300 91° East 494 568 33,400 -1,200 Descending Washington Center
05:49PM 37.5358 -78.4806 91° East 494 568 31,600 -1,800 Descending Washington Center
05:50PM 37.5314 -78.3128 92° East 488 562 29,800 -1,800 Descending Washington Center
05:51PM 37.5247 -78.1397 93° East 488 562 28,100 -1,380 Descending Washington Center
05:52PM 37.5200 -77.9642 92° East 488 562 27,100 -1,680 Descending Washington Center
05:53PM 37.5169 -77.7886 91° East 498 573 24,800 -1,980 Descending Washington Center
05:54PM 37.5839 -77.6569 57° Northeast 437 503 23,200 -1,440 Descending Washington Center
05:55PM 37.7039 -77.5997 21° North 411 473 22,000 -1,140 Descending Washington Center
05:56PM 37.8214 -77.5581 16° North 419 482 21,000 -1,020 Descending Washington Center
05:57PM 37.9267 -77.4872 28° Northeast 419 482 20,000 -1,080 Descending Washington Center
05:58PM 38.0344 -77.4081 30° Northeast 431 496 18,900 -1,080 Descending Washington Center
05:59PM 38.1378 -77.3289 31° Northeast 431 496 17,900 -1,140 Descending Washington Center
06:00PM 38.2389 -77.2492 32° Northeast 431 496 16,700 -1,200 Descending Washington Center
06:01PM 38.3400 -77.1719 31° Northeast 431 496 15,500 -1,380 Descending Washington Center
06:02PM 38.4331 -77.0814 37° Northeast 426 490 14,000 -1,740 Descending Washington Center
06:03PM 38.5133 -76.9794 45° Northeast 414 476 12,100 -1,560 Descending Washington Center
06:04PM 38.5875 -76.8906 43° Northeast 388 447 10,900 -1,140 Descending Washington Center
06:05PM 38.6486 -76.8144 44° Northeast 340 391 9,900 -960 Descending Washington Center
06:06PM 38.7056 -76.7408 45° Northeast 303 349 9,000 -1,200 Descending Washington Center
06:07PM 38.7461 -76.6483 61° Northeast 324 373 7,600 -1,560 Descending Washington Center
06:07PM 38.7667 -76.5833 68° East 294 338 6,700 -1,440 Descending Potomac TRACON
06:08PM 38.8333 -76.5333 30° Northeast 269 310 5,500 -1,320 Descending Potomac TRACON
06:10PM 38.9167 -76.5000 17° North 265 305 4,000 -1,200 Descending Potomac TRACON
06:11PM 38.9833 -76.5000 360° North 251 289 3,000 -1,080 Descending Potomac TRACON
06:11PM 39.0333 -76.5167 345° North 234 269 2,000 -540 Descending Potomac TRACON
06:12PM 39.0833 -76.5667 322° Northwest 200 230 2,000 -240 Level Potomac TRACON
06:13PM 39.1167 -76.6000 322° Northwest 155 178 1,600 -540 Descending Potomac TRACON
06:14PM 39.1500 -76.6167 339° North 124 143 1,000 -600 Descending Potomac TRACON
06:16PM 39.1667 -76.6667 339° North  Level FlightAware Approximate
06:23PM 39.1754 -76.6683 339° North  Level Estimated